createdAt,value
2018-08-06T00:02:06.523Z,49.31
2018-08-06T00:05:30.970Z,50.25
2018-08-06T00:08:55.401Z,50.26
2018-08-06T00:12:19.871Z,50.53
2018-08-06T00:15:44.284Z,51.34
2018-08-06T00:19:08.715Z,51.32
2018-08-06T00:22:33.161Z,52.03
2018-08-06T00:25:57.744Z,51.79
2018-08-06T00:29:22.157Z,52.29
2018-08-06T00:32:47.526Z,52.06
2018-08-06T00:36:11.966Z,52.68
2018-08-06T00:39:36.388Z,53.34
2018-08-06T00:43:00.800Z,53.17
2018-08-06T00:46:25.224Z,53.04
2018-08-06T00:49:49.656Z,52.74
2018-08-06T00:53:14.082Z,52.98
2018-08-06T00:56:38.541Z,52.74
2018-08-06T01:00:02.973Z,52.87
2018-08-06T01:03:27.431Z,53.33
2018-08-06T01:06:51.879Z,54.86
2018-08-06T01:10:19.032Z,54.15
2018-08-06T01:13:43.306Z,53.66
2018-08-06T01:17:07.773Z,54.81
2018-08-06T01:20:32.198Z,55.22
2018-08-06T01:23:56.629Z,55.42
2018-08-06T01:27:29.727Z,56.17
2018-08-06T01:30:54.194Z,56.83
2018-08-06T01:34:18.645Z,56.86
2018-08-06T01:37:43.091Z,57.54
2018-08-06T01:41:08.121Z,56.74
2018-08-06T01:44:32.524Z,56.72
2018-08-06T01:47:56.936Z,57.53
2018-08-06T01:51:21.458Z,57.96
2018-08-06T01:54:45.856Z,58.04
2018-08-06T01:58:10.264Z,57.58
2018-08-06T02:01:34.711Z,58.34
2018-08-06T02:04:59.107Z,58.35
2018-08-06T02:08:23.537Z,58.08
2018-08-06T02:11:54.651Z,57.37
2018-08-06T02:15:19.103Z,58.22
2018-08-06T02:18:43.527Z,58.33
2018-08-06T02:22:08.047Z,58.30
2018-08-06T02:25:32.584Z,58.96
2018-08-06T02:28:57.008Z,59.78
2018-08-06T02:32:21.439Z,59.07
2018-08-06T02:35:45.884Z,58.49
2018-08-06T02:39:11.550Z,58.27
2018-08-06T02:42:36.041Z,58.61
2018-08-06T02:46:00.540Z,59.58
2018-08-06T02:49:25.069Z,60.17
2018-08-06T02:52:49.520Z,60.11
2018-08-06T02:56:13.974Z,59.83
2018-08-06T02:59:38.372Z,60.12
2018-08-06T03:03:02.893Z,58.75
2018-08-06T03:06:27.331Z,59.14
2018-08-06T03:09:51.758Z,58.77
2018-08-06T03:13:16.206Z,59.76
2018-08-06T03:16:40.633Z,59.84
2018-08-06T03:20:06.043Z,61.16
2018-08-06T03:23:30.443Z,60.01
2018-08-06T03:26:54.892Z,60.27
2018-08-06T03:30:19.327Z,59.78
2018-08-06T03:33:43.785Z,60.10
2018-08-06T03:37:08.268Z,60.09
2018-08-06T03:40:32.713Z,61.03
2018-08-06T03:43:57.160Z,61.05
2018-08-06T03:47:21.612Z,60.80
2018-08-06T03:50:46.102Z,61.48
2018-08-06T03:54:10.537Z,61.02
2018-08-06T03:57:34.973Z,61.30
2018-08-06T04:00:59.409Z,62.12
2018-08-06T04:04:23.836Z,62.24
2018-08-06T04:07:48.313Z,62.67
2018-08-06T04:11:12.811Z,62.25
2018-08-06T04:14:37.209Z,62.43
2018-08-06T04:18:01.636Z,61.33
2018-08-06T04:21:26.118Z,61.79
2018-08-06T04:24:50.698Z,62.30
2018-08-06T04:28:15.158Z,61.87
2018-08-06T04:31:39.714Z,63.53
2018-08-06T04:35:04.261Z,63.20
2018-08-06T04:38:28.734Z,62.91
2018-08-06T04:41:53.124Z,64.47
2018-08-06T04:45:17.586Z,63.16
2018-08-06T04:48:42.046Z,63.36
2018-08-06T04:52:06.933Z,63.58
2018-08-06T04:55:31.333Z,63.97
2018-08-06T04:58:55.773Z,63.05
2018-08-06T05:02:20.264Z,63.59
2018-08-06T05:05:44.781Z,62.68
2018-08-06T05:09:11.799Z,62.81
2018-08-06T05:12:36.252Z,62.20
2018-08-06T05:16:00.721Z,61.02
2018-08-06T05:19:25.179Z,60.63
2018-08-06T05:22:49.626Z,60.45
2018-08-06T05:26:14.110Z,60.30
2018-08-06T05:29:38.638Z,59.68
2018-08-06T05:33:03.105Z,58.15
2018-08-06T05:36:27.648Z,57.92
2018-08-06T05:39:52.307Z,58.38
2018-08-06T05:43:16.783Z,57.99
2018-08-06T05:46:41.292Z,57.83
2018-08-06T05:50:09.330Z,57.10
2018-08-06T05:53:34.761Z,57.46
2018-08-06T05:56:59.225Z,57.70
2018-08-06T06:00:23.679Z,56.81
2018-08-06T06:03:48.079Z,55.31
2018-08-06T06:07:12.509Z,55.44
2018-08-06T06:10:36.937Z,53.82
2018-08-06T06:14:01.391Z,53.83
2018-08-06T06:17:25.831Z,52.41
2018-08-06T06:20:50.258Z,52.62
2018-08-06T06:24:14.714Z,50.46
2018-08-06T06:27:39.196Z,51.24
2018-08-06T06:31:03.741Z,50.20
2018-08-06T06:34:28.217Z,48.73
2018-08-06T06:37:52.609Z,48.93
2018-08-06T06:41:17.159Z,46.68
2018-08-06T06:44:41.596Z,46.34
2018-08-06T06:48:06.204Z,46.09
2018-08-06T06:51:30.663Z,45.99
2018-08-06T06:54:55.342Z,44.48
2018-08-06T06:58:19.779Z,43.84
2018-08-06T07:01:44.292Z,43.29
2018-08-06T07:05:09.005Z,44.11
2018-08-06T07:08:33.460Z,43.35
2018-08-06T07:12:19.251Z,44.19
2018-08-06T07:15:43.788Z,43.08
2018-08-06T07:19:08.406Z,43.50
2018-08-06T07:22:32.860Z,42.58
2018-08-06T07:25:57.423Z,43.71
2018-08-06T07:29:21.909Z,42.06
2018-08-06T07:32:46.427Z,42.46
2018-08-06T07:36:10.890Z,42.86
2018-08-06T07:39:35.321Z,41.92
2018-08-06T07:42:59.799Z,41.66
2018-08-06T07:46:24.256Z,42.10
2018-08-06T07:49:48.784Z,41.25
2018-08-06T07:53:13.211Z,40.25
2018-08-06T07:56:37.673Z,40.71
2018-08-06T08:00:02.154Z,40.23
2018-08-06T08:03:26.642Z,40.27
2018-08-06T08:06:51.125Z,40.08
2018-08-06T08:10:20.517Z,38.60
2018-08-06T08:13:45.014Z,37.26
2018-08-06T08:17:09.501Z,37.63
2018-08-06T08:20:34.113Z,36.34
2018-08-06T08:23:58.521Z,36.24
2018-08-06T08:27:23.068Z,36.47
2018-08-06T08:30:47.479Z,35.71
2018-08-06T08:34:11.978Z,36.53
2018-08-06T08:37:36.804Z,35.95
2018-08-06T08:41:01.269Z,36.41
2018-08-06T08:44:25.691Z,35.88
2018-08-06T08:47:50.175Z,35.96
2018-08-06T08:51:14.717Z,34.68
2018-08-06T08:54:39.135Z,36.82
2018-08-06T08:58:03.675Z,34.55
2018-08-06T09:01:28.580Z,34.66
2018-08-06T09:04:53.272Z,34.53
2018-08-06T09:08:17.747Z,33.22
2018-08-06T09:11:42.654Z,33.04
2018-08-06T09:15:16.762Z,31.94
2018-08-06T09:18:41.227Z,32.54
2018-08-06T09:22:05.692Z,31.74
2018-08-06T09:25:30.215Z,31.98
2018-08-06T09:28:54.847Z,31.80
2018-08-06T09:32:19.478Z,31.71
2018-08-06T09:35:43.920Z,31.25
2018-08-06T09:39:11.729Z,31.44
2018-08-06T09:42:36.140Z,30.69
2018-08-06T09:46:00.691Z,31.19
2018-08-06T09:49:25.153Z,30.36
2018-08-06T09:52:50.878Z,30.74
2018-08-06T09:56:15.379Z,29.91
2018-08-06T09:59:39.812Z,29.13
2018-08-06T10:03:04.299Z,28.52
2018-08-06T10:06:28.839Z,29.40
2018-08-06T10:09:53.409Z,28.07
2018-08-06T10:13:17.861Z,27.33
2018-08-06T10:16:42.360Z,26.74
2018-08-06T10:20:10.111Z,26.65
2018-08-06T10:23:34.567Z,26.00
2018-08-06T10:26:59.009Z,24.81
2018-08-06T10:30:23.928Z,24.75
2018-08-06T10:33:48.334Z,23.26
2018-08-06T10:37:12.780Z,21.09
2018-08-06T10:40:37.195Z,19.16
2018-08-06T10:44:01.645Z,18.32
2018-08-06T10:47:26.053Z,17.71
2018-08-06T10:50:50.482Z,15.75
2018-08-06T10:54:14.924Z,14.70
2018-08-06T10:57:40.651Z,14.23
2018-08-06T11:01:05.067Z,15.76
2018-08-06T11:04:29.469Z,18.67
2018-08-06T11:07:53.922Z,20.67
2018-08-06T11:11:18.321Z,21.49
2018-08-06T11:14:42.857Z,20.52
2018-08-06T11:18:07.289Z,21.21
2018-08-06T11:21:31.684Z,21.99
2018-08-06T11:24:56.274Z,21.70
2018-08-06T11:28:20.651Z,22.58
2018-08-06T11:31:45.084Z,22.26
2018-08-06T11:35:11.164Z,20.86
2018-08-06T11:38:35.623Z,21.63
2018-08-06T11:42:00.064Z,20.79
2018-08-06T11:45:24.511Z,20.11
2018-08-06T11:48:48.937Z,20.25
2018-08-06T11:52:13.379Z,20.87
2018-08-06T11:55:37.840Z,20.52
2018-08-06T11:59:02.233Z,19.80
2018-08-06T12:02:27.115Z,19.53
2018-08-06T12:05:51.543Z,19.47
2018-08-06T12:09:15.966Z,19.12
2018-08-06T12:12:40.664Z,18.18
2018-08-06T12:16:06.385Z,17.85
2018-08-06T12:19:30.818Z,16.15
2018-08-06T12:22:55.241Z,16.25
2018-08-06T12:26:19.748Z,16.04
2018-08-06T12:29:44.098Z,17.21
2018-08-06T12:33:08.316Z,16.11
2018-08-06T12:36:32.783Z,17.27
2018-08-06T12:39:57.229Z,17.01
2018-08-06T12:43:21.730Z,16.54
2018-08-06T12:46:46.588Z,15.83
2018-08-06T12:50:12.261Z,15.13
2018-08-06T12:53:36.662Z,14.68
2018-08-06T12:57:01.131Z,12.25
2018-08-06T13:00:27.095Z,12.36
2018-08-06T13:03:51.525Z,11.67
2018-08-06T13:07:16.013Z,11.25
2018-08-06T13:10:40.150Z,11.43
2018-08-06T13:14:05.048Z,10.45
2018-08-06T13:17:29.603Z,8.58
2018-08-06T13:20:54.066Z,8.59
2018-08-06T13:24:18.526Z,7.25
2018-08-06T13:27:43.193Z,6.97
2018-08-06T13:31:08.441Z,7.26
2018-08-06T13:34:33.046Z,7.65
2018-08-06T13:37:57.812Z,7.34
2018-08-06T13:41:22.767Z,6.54
2018-08-06T13:44:47.659Z,6.87
2018-08-06T13:48:12.285Z,8.75
2018-08-06T13:51:36.866Z,7.32
2018-08-06T13:55:01.453Z,6.89
2018-08-06T13:58:26.302Z,7.54
2018-08-06T14:01:51.110Z,7.74
2018-08-06T14:05:16.762Z,8.25
2018-08-06T14:08:41.220Z,6.73
2018-08-06T14:12:06.012Z,8.17
2018-08-06T14:15:30.533Z,8.63
2018-08-06T14:18:55.513Z,7.91
2018-08-06T14:22:20.005Z,7.28
2018-08-06T14:25:44.693Z,6.99
2018-08-06T14:29:09.354Z,8.38
2018-08-06T14:32:34.116Z,6.96
2018-08-06T14:35:58.863Z,7.73
2018-08-06T14:39:23.796Z,7.32
2018-08-06T14:42:48.711Z,8.10
2018-08-06T14:46:13.534Z,7.79
2018-08-06T14:49:38.443Z,7.85
2018-08-06T14:53:02.869Z,7.26
2018-08-06T14:56:27.407Z,7.20
2018-08-06T14:59:51.828Z,7.15
2018-08-06T15:03:16.335Z,7.74
2018-08-06T15:06:40.771Z,7.46
2018-08-06T15:10:06.682Z,8.05
2018-08-06T15:13:31.660Z,7.97
2018-08-06T15:16:56.155Z,7.31
2018-08-06T15:20:20.583Z,7.70
2018-08-06T15:23:45.001Z,7.77
2018-08-06T15:27:09.455Z,7.71
2018-08-06T15:30:33.834Z,7.94
2018-08-06T15:33:58.336Z,7.05
2018-08-06T15:37:22.855Z,6.67
2018-08-06T15:40:50.299Z,5.11
2018-08-06T15:44:14.760Z,5.26
2018-08-06T15:47:39.417Z,6.52
2018-08-06T15:51:03.791Z,6.74
2018-08-06T15:54:28.222Z,5.92
2018-08-06T15:57:52.639Z,6.85
2018-08-06T16:01:17.482Z,7.09
2018-08-06T16:04:41.914Z,5.62
2018-08-06T16:08:06.558Z,6.42
2018-08-06T16:11:30.944Z,6.12
2018-08-06T16:14:55.306Z,5.68
2018-08-06T16:18:19.703Z,6.96
2018-08-06T16:21:44.106Z,7.26
2018-08-06T16:25:09.501Z,7.35
2018-08-06T16:28:33.879Z,8.56
2018-08-06T16:31:58.405Z,8.21
2018-08-06T16:35:24.310Z,7.65
2018-08-06T16:38:48.739Z,9.50
2018-08-06T16:42:13.174Z,9.21
2018-08-06T16:45:37.591Z,10.29
2018-08-06T16:49:02.014Z,10.16
2018-08-06T16:52:26.492Z,10.72
2018-08-06T16:55:51.037Z,10.84
2018-08-06T16:59:15.453Z,11.04
2018-08-06T17:02:40.062Z,11.77
2018-08-06T17:06:04.498Z,12.16
2018-08-06T17:09:30.150Z,12.94
2018-08-06T17:12:55.187Z,14.23
2018-08-06T17:16:19.573Z,15.32
2018-08-06T17:19:43.993Z,17.06
2018-08-06T17:23:08.421Z,18.99
2018-08-06T17:26:32.910Z,19.96
2018-08-06T17:29:59.062Z,20.39
2018-08-06T17:33:23.165Z,22.33
2018-08-06T17:36:47.603Z,23.22
2018-08-06T17:40:15.817Z,23.94
2018-08-06T17:43:40.212Z,22.86
2018-08-06T17:47:04.638Z,23.12
2018-08-06T17:50:29.047Z,25.02
2018-08-06T17:53:53.505Z,24.63
2018-08-06T17:57:18.146Z,24.95
2018-08-06T18:00:42.557Z,27.30
2018-08-06T18:04:07.159Z,25.89
2018-08-06T18:07:31.549Z,26.28
2018-08-06T18:10:56.035Z,27.33
2018-08-06T18:14:20.565Z,28.14
2018-08-06T18:17:45.068Z,30.53
2018-08-06T18:21:09.499Z,31.55
2018-08-06T18:24:34.504Z,32.89
2018-08-06T18:27:58.907Z,32.74
2018-08-06T18:31:23.706Z,33.91
2018-08-06T18:34:48.522Z,34.46
2018-08-06T18:38:13.446Z,35.17
2018-08-06T18:41:38.244Z,34.18
2018-08-06T18:45:03.094Z,35.71
2018-08-06T18:48:28.046Z,34.53
2018-08-06T18:51:53.192Z,39.26
2018-08-06T18:55:19.194Z,39.70
2018-08-06T18:58:43.945Z,41.33
2018-08-06T19:02:09.350Z,41.93
2018-08-06T19:05:33.874Z,43.53
2018-08-06T19:08:58.706Z,43.37
2018-08-06T19:12:28.777Z,44.21
2018-08-06T19:15:53.703Z,42.30
2018-08-06T19:19:28.843Z,42.85
2018-08-06T19:22:53.559Z,44.30
2018-08-06T19:26:18.233Z,43.35
2018-08-06T19:29:43.031Z,41.63
2018-08-06T19:33:07.955Z,43.88
2018-08-06T19:37:37.672Z,44.29
2018-08-06T19:41:02.358Z,43.68
2018-08-06T19:44:27.451Z,44.14
2018-08-06T19:47:52.060Z,44.54
2018-08-06T19:51:16.347Z,44.35
2018-08-06T19:54:44.090Z,44.09
2018-08-06T19:58:09.577Z,45.38
2018-08-06T20:01:36.339Z,45.88
2018-08-06T20:05:01.200Z,45.17
2018-08-06T20:08:27.199Z,46.09
2018-08-06T20:11:52.740Z,46.44
2018-08-06T20:15:21.568Z,46.83
2018-08-06T20:18:46.518Z,45.02
2018-08-06T20:22:17.413Z,45.98
2018-08-06T20:25:43.709Z,44.52
2018-08-06T20:29:08.359Z,46.05
2018-08-06T20:32:34.270Z,45.46
2018-08-06T20:36:00.334Z,47.00
2018-08-06T20:39:24.959Z,45.98
2018-08-06T20:42:49.514Z,47.01
2018-08-06T20:46:15.229Z,47.03
2018-08-06T20:49:39.734Z,44.95
2018-08-06T20:53:04.399Z,45.46
2018-08-06T20:56:28.997Z,43.61
2018-08-06T20:59:53.443Z,44.37
2018-08-06T21:03:18.699Z,46.18
2018-08-06T21:06:43.803Z,44.45
2018-08-06T21:10:12.187Z,45.40
2018-08-06T21:13:37.222Z,45.30
2018-08-06T21:17:01.668Z,44.90
2018-08-06T21:20:27.176Z,43.95
2018-08-06T21:23:51.639Z,44.28
2018-08-06T21:27:16.559Z,44.23
2018-08-06T21:30:41.382Z,44.56
2018-08-06T21:34:06.542Z,43.48
2018-08-06T21:37:31.198Z,43.93
2018-08-06T21:40:56.003Z,45.36
2018-08-06T21:44:21.048Z,42.33
2018-08-06T21:47:45.413Z,42.16
2018-08-06T21:51:10.187Z,42.32
2018-08-06T21:54:34.846Z,41.16
2018-08-06T21:57:59.273Z,43.38
2018-08-06T22:01:23.707Z,44.41
2018-08-06T22:04:48.998Z,44.50
2018-08-06T22:08:13.543Z,43.29
2018-08-06T22:11:38.080Z,43.08
2018-08-06T22:15:02.506Z,43.30
2018-08-06T22:18:27.004Z,42.94
2018-08-06T22:21:51.511Z,44.13
2018-08-06T22:25:16.049Z,43.75
2018-08-06T22:28:40.528Z,43.81
2018-08-06T22:32:05.169Z,44.97
2018-08-06T22:35:29.663Z,44.62
2018-08-06T22:38:54.153Z,44.19
2018-08-06T22:42:18.681Z,44.87
2018-08-06T22:45:43.102Z,44.64
2018-08-06T22:49:07.678Z,46.66
2018-08-06T22:52:32.167Z,45.17
2018-08-06T22:56:05.962Z,44.11
2018-08-06T22:59:30.401Z,44.32
2018-08-06T23:02:54.880Z,44.92
2018-08-06T23:06:18.997Z,45.41
2018-08-06T23:09:43.437Z,45.91
2018-08-06T23:13:07.876Z,44.44
2018-08-06T23:16:32.304Z,46.00
2018-08-06T23:19:56.782Z,46.76
2018-08-06T23:23:21.262Z,46.01
2018-08-06T23:26:45.694Z,45.39
2018-08-06T23:30:14.921Z,46.57
2018-08-06T23:33:39.305Z,46.32
2018-08-06T23:37:03.785Z,46.25
2018-08-06T23:40:28.210Z,48.39
2018-08-06T23:43:52.650Z,48.39
2018-08-06T23:47:17.111Z,48.89
2018-08-06T23:50:41.566Z,50.10
2018-08-06T23:54:06.114Z,49.97
2018-08-06T23:57:30.599Z,49.86
